Terminal Aerodrome Forecast
Issued by NWS

Home | Current Version | Previous Version | Text Only | Print | Product List | Glossary On
Versions: 1 2 3 4 5 6 7 8 9 10 11 12 13 14 15
385
FTUS43 KTOP 281730
TAFFOE
TAF
KFOE 281730Z 2818/2918 12003KT P6SM OVC025
     FM282100 20005KT P6SM BKN035
     FM282300 34005KT P6SM OVC025
     FM290100 01007KT P6SM OVC007
     FM290600 01012KT 6SM SHRA OVC006
     FM291200 03013G23KT 5SM RA OVC005=

USA.gov is the U.S. government's official web portal to all federal, state and local government web resources and services.